createdAt,value
2022-09-04T00:00:33.350Z,75.80
2022-09-04T00:04:43.258Z,76.30
2022-09-04T00:09:01.988Z,76.10
2022-09-04T00:13:39.254Z,76.30
2022-09-04T00:17:53.692Z,76.30
2022-09-04T00:22:01.807Z,77.00
2022-09-04T00:26:10.524Z,77.10
2022-09-04T00:30:21.463Z,77.00
2022-09-04T00:35:16.035Z,76.80
2022-09-04T00:39:24.253Z,76.50
2022-09-04T00:43:30.031Z,77.10
2022-09-04T00:47:57.483Z,77.20
2022-09-04T00:52:16.557Z,77.20
2022-09-04T00:56:49.771Z,77.60
2022-09-04T01:00:56.973Z,77.60
2022-09-04T01:05:28.430Z,77.50
2022-09-04T01:09:57.038Z,77.10
2022-09-04T01:14:20.717Z,77.00
2022-09-04T01:18:34.469Z,77.30
2022-09-04T01:23:03.196Z,77.30
2022-09-04T01:27:13.571Z,76.90
2022-09-04T01:31:50.590Z,77.20
2022-09-04T01:36:38.227Z,77.20
2022-09-04T01:40:44.867Z,77.20
2022-09-04T01:44:48.741Z,78.20
2022-09-04T01:49:09.520Z,78.20
2022-09-04T01:53:24.740Z,78.50
2022-09-04T01:57:49.415Z,78.50
2022-09-04T02:02:21.504Z,78.70
2022-09-04T02:06:40.537Z,78.40
2022-09-04T02:10:46.419Z,78.20
2022-09-04T02:15:06.639Z,78.20
2022-09-04T02:19:26.020Z,78.50
2022-09-04T02:23:52.209Z,78.60
2022-09-04T02:28:00.818Z,78.30
2022-09-04T02:32:30.154Z,78.30
2022-09-04T02:37:03.241Z,78.40
2022-09-04T02:41:11.833Z,78.00
2022-09-04T02:45:49.178Z,78.00
2022-09-04T02:50:14.875Z,77.80
2022-09-04T02:54:43.974Z,78.10
2022-09-04T02:59:00.491Z,78.20
2022-09-04T03:03:03.417Z,78.30
2022-09-04T03:07:27.066Z,78.00
2022-09-04T03:11:52.842Z,78.10
2022-09-04T03:16:19.412Z,77.60
2022-09-04T03:20:51.455Z,77.70
2022-09-04T03:25:12.084Z,77.80
2022-09-04T03:29:15.370Z,78.00
2022-09-04T03:33:29.710Z,77.70
2022-09-04T03:37:54.234Z,77.80
2022-09-04T03:42:00.702Z,77.50
2022-09-04T03:46:26.161Z,78.00
2022-09-04T03:50:43.848Z,77.90
2022-09-04T03:55:11.518Z,78.00
2022-09-04T03:59:38.097Z,78.30
2022-09-04T04:04:02.652Z,78.00
2022-09-04T04:08:14.294Z,78.10
2022-09-04T04:12:42.791Z,78.30
2022-09-04T04:17:23.244Z,77.80
2022-09-04T04:21:54.711Z,78.20
2022-09-04T04:26:03.496Z,78.50
2022-09-04T04:30:24.697Z,78.50
2022-09-04T04:34:40.173Z,78.30
2022-09-04T04:39:01.405Z,78.50
2022-09-04T04:43:22.280Z,78.70
2022-09-04T04:48:03.103Z,79.20
2022-09-04T04:52:41.194Z,78.70
2022-09-04T04:56:53.506Z,78.40
2022-09-04T05:01:07.554Z,78.90
2022-09-04T05:05:47.504Z,79.40
2022-09-04T05:09:50.691Z,79.20
2022-09-04T05:14:17.651Z,79.30
2022-09-04T05:18:29.899Z,79.70
2022-09-04T05:23:05.844Z,79.70
2022-09-04T05:27:24.110Z,79.10
2022-09-04T05:31:33.078Z,79.20
2022-09-04T05:36:05.288Z,79.40
2022-09-04T05:40:43.431Z,78.90
2022-09-04T05:44:46.235Z,78.40
2022-09-04T05:49:20.635Z,78.90
2022-09-04T05:53:44.706Z,78.40
2022-09-04T05:58:08.492Z,78.80
2022-09-04T06:02:30.157Z,78.60
2022-09-04T06:06:57.702Z,78.50
2022-09-04T06:11:49.857Z,78.70
2022-09-04T06:15:57.933Z,78.50
2022-09-04T06:20:34.084Z,78.20
2022-09-04T06:24:36.796Z,78.30
2022-09-04T06:28:56.536Z,78.60
2022-09-04T06:33:53.523Z,79.00
2022-09-04T06:38:11.298Z,78.70
2022-09-04T06:42:29.902Z,78.60
2022-09-04T06:47:00.655Z,78.70
2022-09-04T06:51:13.031Z,78.30
2022-09-04T06:55:28.644Z,78.50
2022-09-04T06:59:45.900Z,78.50
2022-09-04T07:04:00.726Z,78.60
2022-09-04T07:08:25.873Z,78.60
2022-09-04T07:12:34.733Z,78.70
2022-09-04T07:17:07.858Z,78.90
2022-09-04T07:21:54.711Z,78.90
2022-09-04T07:26:23.128Z,78.60
2022-09-04T07:30:35.370Z,78.90
2022-09-04T07:34:44.693Z,79.30
2022-09-04T07:39:22.846Z,79.40
2022-09-04T07:43:51.442Z,79.20
2022-09-04T07:48:15.693Z,79.10
2022-09-04T07:52:43.849Z,79.20
2022-09-04T07:57:28.336Z,79.50
2022-09-04T08:01:50.284Z,79.10
2022-09-04T08:06:17.606Z,79.20
2022-09-04T08:10:26.502Z,78.50
2022-09-04T08:14:37.820Z,78.10
2022-09-04T08:19:01.737Z,77.50
2022-09-04T08:23:16.556Z,76.30
2022-09-04T08:27:26.410Z,75.40
2022-09-04T08:31:47.517Z,74.80
2022-09-04T08:36:01.962Z,73.70
2022-09-04T08:40:33.406Z,72.70
2022-09-04T08:45:15.479Z,72.20
2022-09-04T08:49:37.082Z,71.40
2022-09-04T08:53:45.967Z,70.30
2022-09-04T08:58:16.266Z,69.70
2022-09-04T09:02:22.350Z,69.70
2022-09-04T09:06:47.307Z,68.60
2022-09-04T09:11:11.980Z,68.40
2022-09-04T09:15:39.712Z,67.90
2022-09-04T09:20:42.259Z,67.80
2022-09-04T09:25:30.163Z,67.30
2022-09-04T09:29:35.894Z,66.00
2022-09-04T09:34:03.540Z,65.70
2022-09-04T09:38:35.369Z,65.30
2022-09-04T09:42:48.466Z,65.50
2022-09-04T09:47:36.521Z,64.90
2022-09-04T09:52:06.734Z,64.40
2022-09-04T09:56:46.645Z,63.70
2022-09-04T10:01:03.335Z,62.50
2022-09-04T10:05:42.462Z,61.30
2022-09-04T10:10:03.400Z,60.70
2022-09-04T10:14:38.757Z,59.50
2022-09-04T10:19:04.186Z,58.90
2022-09-04T10:23:25.784Z,58.10
2022-09-04T10:27:47.288Z,57.70
2022-09-04T10:32:23.880Z,57.60
2022-09-04T10:37:06.218Z,56.80
2022-09-04T10:42:04.235Z,57.40
2022-09-04T10:46:23.360Z,57.20
2022-09-04T10:50:57.499Z,54.90
2022-09-04T10:55:31.433Z,55.30
2022-09-04T11:00:08.924Z,54.80
2022-09-04T11:04:30.645Z,54.30
2022-09-04T11:08:55.533Z,53.80
2022-09-04T11:13:48.129Z,53.30
2022-09-04T11:18:12.115Z,53.70
2022-09-04T11:22:48.376Z,53.10
2022-09-04T11:27:10.020Z,52.70
2022-09-04T11:31:53.121Z,51.10
2022-09-04T11:36:09.073Z,52.10
2022-09-04T11:40:23.768Z,51.50
2022-09-04T11:44:49.166Z,50.20
2022-09-04T11:49:32.133Z,50.90
2022-09-04T11:54:00.408Z,51.40
2022-09-04T11:58:21.350Z,52.40
2022-09-04T12:02:32.990Z,53.10
2022-09-04T12:07:22.785Z,53.40
2022-09-04T12:11:44.240Z,53.70
2022-09-04T12:15:55.282Z,54.00
2022-09-04T12:20:10.833Z,53.40
2022-09-04T12:24:37.662Z,54.20
2022-09-04T12:29:05.458Z,54.50
2022-09-04T12:33:11.595Z,54.70
2022-09-04T12:37:46.104Z,55.40
2022-09-04T12:42:14.900Z,55.30
2022-09-04T12:46:56.000Z,55.10
2022-09-04T12:51:24.666Z,55.40
2022-09-04T12:56:10.535Z,54.90
2022-09-04T13:00:17.582Z,55.20
2022-09-04T13:04:38.882Z,55.10
2022-09-04T13:08:41.756Z,54.70
2022-09-04T13:13:22.453Z,54.40
2022-09-04T13:17:43.608Z,54.60
2022-09-04T13:22:18.699Z,54.20
2022-09-04T13:26:46.193Z,53.70
2022-09-04T13:31:33.619Z,53.30
2022-09-04T13:36:16.511Z,53.50
2022-09-04T13:40:43.485Z,53.30
2022-09-04T13:45:02.182Z,52.40
2022-09-04T13:49:18.444Z,52.20
2022-09-04T13:53:28.535Z,51.60
2022-09-04T13:57:43.415Z,51.00
2022-09-04T14:01:51.029Z,51.10
2022-09-04T14:05:54.417Z,49.80
2022-09-04T14:10:04.344Z,50.20
2022-09-04T14:14:25.830Z,49.80
2022-09-04T14:18:45.445Z,50.20
2022-09-04T14:23:14.609Z,49.30
2022-09-04T14:27:29.411Z,48.40
2022-09-04T14:32:06.769Z,48.60
2022-09-04T14:36:54.506Z,47.40
2022-09-04T14:41:02.700Z,47.70
2022-09-04T14:45:22.209Z,46.60
2022-09-04T14:49:32.106Z,45.80
2022-09-04T14:53:35.502Z,45.50
2022-09-04T14:57:44.554Z,44.60
2022-09-04T15:02:09.017Z,44.80
2022-09-04T15:06:24.701Z,45.70
2022-09-04T15:10:49.930Z,45.00
2022-09-04T15:15:18.586Z,44.90
2022-09-04T15:19:41.186Z,44.90
2022-09-04T15:24:09.211Z,45.20
2022-09-04T15:28:38.589Z,43.90
2022-09-04T15:32:42.775Z,44.40
2022-09-04T15:36:45.915Z,44.30
2022-09-04T15:41:16.216Z,44.60
2022-09-04T15:45:57.672Z,45.40
2022-09-04T15:50:04.908Z,45.70
2022-09-04T15:54:11.823Z,45.80
2022-09-04T15:58:33.254Z,44.60
2022-09-04T16:03:12.075Z,45.30
2022-09-04T16:07:40.417Z,45.60
2022-09-04T16:11:49.115Z,44.90
2022-09-04T16:16:03.996Z,41.60
2022-09-04T16:20:26.225Z,40.70
2022-09-04T16:24:47.429Z,41.10
2022-09-04T16:28:56.402Z,40.70
2022-09-04T16:33:01.292Z,40.70
2022-09-04T16:37:14.808Z,41.40
2022-09-04T16:41:20.340Z,42.90
2022-09-04T16:46:14.777Z,43.50
2022-09-04T16:50:42.365Z,44.50
2022-09-04T16:54:55.436Z,45.10
2022-09-04T16:59:27.893Z,45.50
2022-09-04T17:04:12.726Z,45.60
2022-09-04T17:08:48.024Z,45.90
2022-09-04T17:13:05.844Z,46.60
2022-09-04T17:17:30.562Z,47.20
2022-09-04T17:27:35.744Z,47.80
2022-09-04T17:29:08.243Z,48.10
2022-09-04T17:31:45.340Z,48.70
2022-09-04T17:40:34.001Z,49.00
2022-09-04T17:41:38.292Z,49.60
2022-09-04T17:45:35.649Z,50.20
2022-09-04T17:49:46.073Z,50.40
2022-09-04T17:53:58.743Z,51.40
2022-09-04T17:58:30.221Z,51.50
2022-09-04T18:02:54.170Z,51.40
2022-09-04T18:07:21.896Z,51.60
2022-09-04T18:12:00.266Z,52.00
2022-09-04T18:16:59.070Z,52.00
2022-09-04T18:21:28.444Z,52.20
2022-09-04T18:25:59.366Z,52.70
2022-09-04T18:36:35.440Z,52.70
2022-09-04T18:37:21.497Z,53.60
2022-09-04T18:39:40.826Z,53.70
2022-09-04T18:50:24.013Z,53.70
2022-09-04T18:51:03.139Z,55.10
2022-09-04T18:52:50.408Z,55.60
2022-09-04T18:57:00.464Z,56.10
2022-09-04T19:01:27.318Z,56.60
2022-09-04T19:05:44.921Z,57.40
2022-09-04T19:10:00.107Z,57.90
2022-09-04T19:14:15.491Z,58.50
2022-09-04T19:18:46.223Z,58.80
2022-09-04T19:22:53.608Z,58.70
2022-09-04T19:26:57.651Z,59.80
2022-09-04T19:31:11.037Z,60.20
2022-09-04T19:35:22.623Z,60.50
2022-09-04T19:46:06.570Z,60.70
2022-09-04T19:46:25.689Z,61.20
2022-09-04T19:51:47.789Z,61.30
2022-09-04T19:53:48.711Z,61.20
2022-09-04T19:58:15.168Z,62.00
2022-09-04T20:02:55.674Z,61.60
2022-09-04T20:07:06.817Z,61.70
2022-09-04T20:11:34.548Z,63.00
2022-09-04T20:15:43.860Z,63.10
2022-09-04T20:19:55.236Z,63.60
2022-09-04T20:24:10.978Z,63.70
2022-09-04T20:28:23.462Z,63.90
2022-09-04T20:32:48.112Z,64.20
2022-09-04T20:37:24.226Z,64.30
2022-09-04T20:41:48.915Z,63.50
2022-09-04T20:51:51.207Z,64.40
2022-09-04T20:52:59.185Z,64.60
2022-09-04T20:55:24.805Z,65.00
2022-09-04T21:03:12.923Z,64.10
2022-09-04T21:04:47.404Z,64.40
2022-09-04T21:09:20.925Z,64.40
2022-09-04T21:13:45.740Z,64.80
2022-09-04T21:17:57.894Z,64.60
2022-09-04T21:22:36.396Z,65.00
2022-09-04T21:26:57.961Z,64.60
2022-09-04T21:31:06.785Z,64.70
2022-09-04T21:35:41.063Z,65.60
2022-09-04T21:39:58.253Z,64.90
2022-09-04T21:44:29.499Z,65.70
2022-09-04T21:48:55.100Z,65.80
2022-09-04T21:53:00.966Z,65.60
2022-09-04T22:02:27.350Z,66.30
2022-09-04T22:10:14.082Z,66.30
2022-09-04T22:13:37.851Z,66.70
2022-09-04T22:16:35.478Z,66.60
2022-09-04T22:21:18.832Z,68.00
2022-09-04T22:25:24.594Z,67.60
2022-09-04T22:29:43.567Z,68.60
2022-09-04T22:34:27.552Z,68.60
2022-09-04T22:38:30.622Z,68.00
2022-09-04T22:43:09.944Z,68.70
2022-09-04T22:47:28.356Z,67.90
2022-09-04T22:51:37.668Z,68.80
2022-09-04T22:56:23.455Z,69.00
2022-09-04T23:00:25.767Z,69.00
2022-09-04T23:05:13.920Z,69.20
2022-09-04T23:13:51.848Z,68.90
2022-09-04T23:14:18.163Z,69.20
2022-09-04T23:20:35.821Z,69.10
2022-09-04T23:26:44.142Z,70.10
2022-09-04T23:28:37.974Z,69.60
2022-09-04T23:32:40.663Z,70.40
2022-09-04T23:36:49.897Z,70.40
2022-09-04T23:41:05.116Z,70.30
2022-09-04T23:45:29.845Z,70.70
2022-09-04T23:49:39.861Z,70.20
2022-09-04T23:54:24.652Z,71.10
2022-09-04T23:58:54.642Z,70.60
